SULAYMANIYAH INTERNATIONAL AIRPORT
  • SulyAir
  • SulyAir
1 1
Arrival

ArrivalsMore >>

Departure

DeparturesMore >>

TAF

TAF ORSU 252300Z 2600/2624 06012KT 7000 -RA SCT040 BKN070
BECMG 2606/2608 9999 SCT045 SCT080=

METARs